Time;durP1;ratioP1;P1;durP2;ratioP2;P2;SDS_P1;SDS_P2;PMS_P1;PMS_P2;Temp;Humidity;BMP_temperature;BMP_pressure;BME280_temperature;BME280_humidity;BME280_pressure;Samples;Min_cycle;Max_cycle;Signal;HPM_P1;HPM_P2
2022/01/13 00:01:41;;;;;;;43.67;34.00;;;;;;;1.07;100.00;104223.84;5228360;28;20029;-63
2022/01/13 00:04:13;;;;;;;49.95;36.95;;;;;;;1.15;100.00;104233.00;5228519;28;20506;-63
2022/01/13 00:06:44;;;;;;;49.45;36.95;;;;;;;1.17;100.00;104246.16;5228544;28;20484;-63
2022/01/13 00:09:16;;;;;;;66.18;35.00;;;;;;;1.16;100.00;104245.31;5228420;28;20028;-63
2022/01/13 00:11:48;;;;;;;45.35;35.45;;;;;;;1.18;100.00;104246.03;5228401;28;20060;-63
2022/01/13 00:19:55;;;;;;;59.15;37.63;;;;;;;1.24;100.00;104258.91;5246511;28;20033;-63
2022/01/13 00:25:00;;;;;;;54.42;40.22;;;;;;;1.23;100.00;104259.88;5246432;28;20036;-64
2022/01/13 00:27:31;;;;;;;63.17;38.55;;;;;;;1.21;100.00;104268.94;5228952;28;20029;-63
2022/01/13 00:30:02;;;;;;;44.50;34.70;;;;;;;1.18;100.00;104254.03;5228558;28;20024;-63
2022/01/13 00:32:34;;;;;;;68.78;38.53;;;;;;;1.15;100.00;104264.94;5228577;28;20017;-63
2022/01/13 00:35:05;;;;;;;47.17;34.15;;;;;;;1.12;100.00;104259.81;5228229;28;20243;-63
2022/01/13 00:37:37;;;;;;;62.78;32.92;;;;;;;1.09;100.00;104265.38;5228623;28;20024;-63
2022/01/13 00:40:09;;;;;;;56.15;34.45;;;;;;;1.09;100.00;104268.03;5228572;28;20388;-63
2022/01/13 00:42:39;;;;;;;75.40;36.47;;;;;;;1.08;100.00;104260.16;5228269;28;20400;-63
2022/01/13 00:45:14;;;;;;;64.97;35.22;;;;;;;0.95;100.00;104229.09;5227889;28;20032;-63
2022/01/13 00:47:44;;;;;;;48.47;34.25;;;;;;;0.99;100.00;104243.88;5228235;28;20023;-63
2022/01/13 00:50:15;;;;;;;66.68;36.78;;;;;;;1.13;100.00;104255.34;5228084;28;20029;-63
2022/01/13 00:52:45;;;;;;;72.40;34.88;;;;;;;1.09;100.00;104248.53;5228366;28;20024;-63
2022/01/13 00:55:21;;;;;;;83.03;43.17;;;;;;;0.93;100.00;104222.16;5227954;28;20025;-63
2022/01/13 00:57:51;;;;;;;65.70;40.17;;;;;;;1.13;100.00;104250.88;5228394;28;20404;-63
2022/01/13 01:00:22;;;;;;;58.97;35.55;;;;;;;1.11;100.00;104242.16;5228430;28;20024;-64
2022/01/13 01:02:52;;;;;;;69.13;39.15;;;;;;;1.12;100.00;104248.31;5228250;28;20040;-63
2022/01/13 01:05:23;;;;;;;84.68;36.88;;;;;;;1.10;100.00;104240.44;5248814;28;20054;-63
2022/01/13 01:07:53;;;;;;;60.58;38.10;;;;;;;1.06;100.00;104243.44;5231949;28;20074;-63
2022/01/13 01:10:24;;;;;;;56.10;38.63;;;;;;;1.02;100.00;104240.13;5231906;28;20481;-63
2022/01/13 01:12:54;;;;;;;52.67;35.15;;;;;;;0.99;100.00;104222.59;5232397;28;20047;-63
2022/01/13 01:15:25;;;;;;;76.95;36.13;;;;;;;1.01;100.00;104241.09;5249438;28;20078;-62
2022/01/13 01:18:02;;;;;;;57.92;37.78;;;;;;;1.02;100.00;104240.13;5231847;28;20500;-63
2022/01/13 01:20:46;;;;;;;68.70;41.15;;;;;;;0.84;100.00;104209.53;5231717;28;20053;-64
2022/01/13 01:23:21;;;;;;;72.65;35.63;;;;;;;0.99;100.00;104241.22;5231411;28;20459;-63
2022/01/13 01:26:26;;;;;;;78.72;37.65;;;;;;;0.97;100.00;104242.28;5231981;28;20048;-63
2022/01/13 01:29:06;;;;;;;89.03;36.90;;;;;;;0.98;100.00;104250.16;5231629;28;20029;-63
2022/01/13 01:31:39;;;;;;;63.03;32.13;;;;;;;0.97;100.00;104251.13;5231586;28;20035;-63
2022/01/13 01:36:43;;;;;;;112.72;36.63;;;;;;;1.01;100.00;104239.28;5249516;28;20056;-63
2022/01/13 01:39:15;;;;;;;93.07;36.55;;;;;;;1.02;100.00;104245.47;5231389;28;20488;-62
2022/01/13 01:41:50;;;;;;;43.30;32.33;;;;;;;1.00;100.00;104242.06;5231242;28;20496;-64
2022/01/13 01:44:29;;;;;;;75.57;33.97;;;;;;;1.00;100.00;104245.56;5231195;28;20026;-64
2022/01/13 01:47:01;;;;;;;79.38;34.67;;;;;;;1.01;100.00;104235.78;5231618;28;20032;-64
2022/01/13 01:49:38;;;;;;;89.70;34.25;;;;;;;0.89;100.00;104220.69;5231315;28;20039;-63
2022/01/13 01:52:13;;;;;;;88.78;34.80;;;;;;;1.02;100.00;104232.16;5231292;28;20036;-63
2022/01/13 01:54:45;;;;;;;61.55;34.88;;;;;;;1.04;100.00;104240.03;5230918;28;20029;-63
2022/01/13 01:57:18;;;;;;;89.85;38.50;;;;;;;1.04;100.00;104234.72;5231448;28;20119;-62
2022/01/13 01:59:49;;;;;;;86.60;38.38;;;;;;;1.04;100.00;104242.69;5230913;28;20024;-63
2022/01/13 02:02:21;;;;;;;78.72;36.85;;;;;;;1.04;100.00;104256.84;5230803;28;20431;-63
2022/01/13 02:04:51;;;;;;;78.00;34.40;;;;;;;1.05;100.00;104234.59;5230483;28;20028;-64
2022/01/13 02:07:22;;;;;;;119.43;41.72;;;;;;;0.86;100.00;104213.78;5231013;28;20412;-63
2022/01/13 02:09:53;;;;;;;43.13;35.03;;;;;;;1.05;100.00;104233.75;5230897;28;20115;-64
2022/01/13 02:12:36;;;;;;;90.50;36.88;;;;;;;1.02;100.00;104232.16;5230768;28;20350;-63
2022/01/13 02:17:41;;;;;;;48.78;32.78;;;;;;;1.09;100.00;104228.09;5248745;28;20039;-63
2022/01/13 02:20:19;;;;;;;80.03;37.45;;;;;;;1.10;100.00;104237.78;5230703;28;20024;-64
2022/01/13 02:22:50;;;;;;;94.13;36.83;;;;;;;1.00;100.00;104234.06;5230417;28;20036;-63
2022/01/13 02:25:20;;;;;;;64.18;36.28;;;;;;;1.10;100.00;104256.41;5230355;28;20111;-63
2022/01/13 02:27:51;;;;;;;69.18;37.97;;;;;;;1.08;100.00;104241.50;5230596;28;20504;-63
2022/01/13 02:30:21;;;;;;;51.78;33.85;;;;;;;1.10;100.00;104247.59;5230437;28;20484;-62
2022/01/13 02:32:51;;;;;;;111.10;38.20;;;;;;;1.09;100.00;104236.09;5230420;28;20031;-62
2022/01/13 02:35:26;;;;;;;50.03;33.67;;;;;;;1.08;100.00;104234.38;5229857;28;20020;-64
2022/01/13 02:37:56;;;;;;;81.88;34.28;;;;;;;1.08;100.00;104221.06;5230350;28;20081;-64
2022/01/13 02:40:28;;;;;;;77.65;34.67;;;;;;;0.96;100.00;104206.84;5230183;28;20033;-63
2022/01/13 02:42:58;;;;;;;40.33;32.45;;;;;;;1.10;100.00;104224.47;5230182;28;20039;-63
2022/01/13 02:45:34;;;;;;;38.92;28.67;;;;;;;1.14;100.00;104217.97;5229831;28;20017;-63
2022/01/13 02:48:27;;;;;;;69.05;35.90;;;;;;;1.14;100.00;104215.31;5229829;28;20074;-63
2022/01/13 02:50:58;;;;;;;62.10;35.10;;;;;;;1.11;100.00;104209.34;5230104;28;20020;-63
2022/01/13 02:53:29;;;;;;;70.82;34.63;;;;;;;1.13;100.00;104213.63;5229563;28;20032;-63
2022/01/13 02:56:05;;;;;;;73.57;36.38;;;;;;;1.10;100.00;104203.19;5248024;28;20157;-63
2022/01/13 02:58:35;;;;;;;134.65;37.50;;;;;;;1.14;100.00;104206.47;5230025;28;20496;-64
2022/01/13 03:01:06;;;;;;;106.75;41.90;;;;;;;1.07;100.00;104203.41;5229817;28;20059;-63
2022/01/13 03:03:36;;;;;;;101.32;34.88;;;;;;;1.12;100.00;104213.72;5229440;28;20039;-63
2022/01/13 03:06:07;;;;;;;84.95;35.80;;;;;;;1.13;100.00;104218.09;5229900;28;20028;-63
2022/01/13 03:08:41;;;;;;;45.17;32.65;;;;;;;1.12;100.00;104222.56;5229705;28;20131;-63
2022/01/13 03:11:13;;;;;;;61.30;32.70;;;;;;;1.13;100.00;104213.63;5229751;28;20039;-65
2022/01/13 03:13:44;;;;;;;91.18;35.83;;;;;;;1.15;100.00;104217.00;5229405;28;20028;-63
2022/01/13 03:16:15;;;;;;;91.68;37.78;;;;;;;1.15;100.00;104216.16;5229704;28;20032;-63
2022/01/13 03:18:45;;;;;;;129.63;40.00;;;;;;;1.15;100.00;104225.00;5229463;28;20031;-65
2022/01/13 03:21:16;;;;;;;129.18;41.95;;;;;;;1.13;100.00;104218.94;5229395;28;20032;-63
2022/01/13 03:23:46;;;;;;;60.45;38.67;;;;;;;1.14;100.00;104214.47;5229223;28;20106;-63
2022/01/13 03:26:20;;;;;;;83.40;38.30;;;;;;;1.16;100.00;104218.69;5228917;28;20071;-65
2022/01/13 03:28:51;;;;;;;87.10;41.25;;;;;;;1.15;100.00;104217.00;5229175;28;20036;-62
2022/01/13 03:31:23;;;;;;;106.90;40.80;;;;;;;1.04;100.00;104200.13;5229223;28;20433;-63
2022/01/13 03:33:54;;;;;;;108.47;40.13;;;;;;;1.16;100.00;104220.50;5229183;28;20357;-63
2022/01/13 03:36:24;;;;;;;82.15;41.83;;;;;;;1.16;100.00;104223.16;5229328;28;20113;-64
2022/01/13 03:38:55;;;;;;;94.10;39.10;;;;;;;1.18;100.00;104215.91;5229284;28;20024;-62
2022/01/13 03:41:26;;;;;;;67.25;39.63;;;;;;;1.14;100.00;104212.66;5229180;28;20021;-67
2022/01/13 03:43:58;;;;;;;77.40;40.47;;;;;;;1.18;100.00;104214.09;5228703;28;20028;-63
2022/01/13 03:46:29;;;;;;;136.13;47.05;;;;;;;1.20;100.00;104211.31;5229053;28;20028;-63
2022/01/13 03:49:00;;;;;;;97.80;38.95;;;;;;;1.21;100.00;104213.03;5228804;28;20037;-63
2022/01/13 03:51:58;;;;;;;79.40;41.00;;;;;;;1.20;100.00;104201.53;5228790;28;20392;-63
2022/01/13 03:54:32;;;;;;;118.55;40.30;;;;;;;1.20;100.00;104204.19;5228242;28;20028;-63
2022/01/13 03:57:27;;;;;;;157.70;46.97;;;;;;;1.17;100.00;104203.56;5228838;28;20115;-63
2022/01/13 04:00:41;;;;;;;102.20;41.63;;;;;;;1.19;100.00;104199.81;5228825;28;20033;-63
2022/01/13 04:03:11;;;;;;;88.25;41.65;;;;;;;1.16;100.00;104196.53;5166152;28;20054;-63
2022/01/13 04:06:03;;;;;;;104.75;40.53;;;;;;;1.17;100.00;104199.09;5165959;28;20065;-63
2022/01/13 04:08:34;;;;;;;141.32;43.20;;;;;;;1.20;100.00;104198.03;5211424;28;20377;-64
2022/01/13 04:11:05;;;;;;;82.80;43.05;;;;;;;1.20;100.00;104193.53;5228416;28;20025;-63
2022/01/13 04:16:27;;;;;;;63.97;41.30;;;;;;;1.20;100.00;104188.22;5247019;28;20366;-63
2022/01/13 04:19:04;;;;;;;126.72;41.22;;;;;;;1.22;100.00;104193.44;5228590;28;20074;-64
2022/01/13 04:21:37;;;;;;;101.95;42.45;;;;;;;1.23;100.00;104203.13;5228389;28;20038;-63
2022/01/13 04:24:11;;;;;;;81.57;40.20;;;;;;;1.14;100.00;104191.34;5228304;28;20032;-63
2022/01/13 04:26:43;;;;;;;73.53;45.95;;;;;;;1.24;100.00;104208.34;5228672;28;20119;-62
2022/01/13 04:31:48;;;;;;;140.73;44.33;;;;;;;1.25;100.00;104212.69;5246534;28;20040;-63
2022/01/13 04:34:18;;;;;;;94.20;41.95;;;;;;;1.12;100.00;104198.59;5228345;28;20024;-63
2022/01/13 04:36:50;;;;;;;122.60;43.47;;;;;;;1.23;100.00;104214.63;5228404;28;20029;-63
2022/01/13 04:39:21;;;;;;;71.28;42.05;;;;;;;1.20;100.00;104225.50;5231558;28;20059;-61
2022/01/13 04:41:53;;;;;;;103.95;41.15;;;;;;;1.20;100.00;104219.31;5232453;28;20033;-66
2022/01/13 04:44:25;;;;;;;132.55;40.78;;;;;;;1.13;100.00;104210.09;5232195;28;20043;-63
2022/01/13 04:46:56;;;;;;;170.65;42.83;;;;;;;1.14;100.00;104210.00;5232373;28;20043;-63
2022/01/13 04:49:26;;;;;;;177.23;47.80;;;;;;;1.12;100.00;104214.56;5232438;28;20468;-64
2022/01/13 04:51:57;;;;;;;140.77;42.25;;;;;;;1.09;100.00;104205.97;5232619;28;20028;-62
2022/01/13 04:54:27;;;;;;;100.75;41.22;;;;;;;1.07;100.00;104211.38;5232238;28;20028;-63
2022/01/13 04:57:07;;;;;;;107.97;39.13;;;;;;;1.05;100.00;104204.47;5232646;28;20407;-63
2022/01/13 04:59:38;;;;;;;61.92;38.97;;;;;;;1.00;100.00;104203.00;5232104;28;20028;-63
2022/01/13 05:02:08;;;;;;;103.95;45.53;;;;;;;1.02;100.00;104202.88;5232172;28;20029;-63
2022/01/13 05:04:39;;;;;;;92.82;38.55;;;;;;;1.03;100.00;104201.94;5249886;28;20393;-63
2022/01/13 05:07:09;;;;;;;110.68;42.08;;;;;;;1.02;100.00;104192.25;5231610;28;20579;-63
2022/01/13 05:09:40;;;;;;;140.73;45.30;;;;;;;0.93;100.00;104179.59;5231492;28;20024;-62
2022/01/13 05:12:10;;;;;;;137.98;39.58;;;;;;;0.93;100.00;104193.75;5231284;28;20027;-63
2022/01/13 05:14:41;;;;;;;146.85;48.28;;;;;;;0.92;100.00;104188.53;5231204;28;20029;-63
2022/01/13 05:17:12;;;;;;;96.65;42.85;;;;;;;0.77;100.00;104176.34;5231514;28;20024;-63
2022/01/13 05:19:58;;;;;;;123.45;42.42;;;;;;;0.95;100.00;104196.28;5231424;28;20047;-63
2022/01/13 05:22:28;;;;;;;126.28;43.28;;;;;;;0.95;100.00;104188.31;5230909;28;20111;-63
2022/01/13 05:24:58;;;;;;;126.70;45.05;;;;;;;0.91;100.00;104186.84;5230983;28;20124;-63
2022/01/13 05:27:29;;;;;;;80.90;40.60;;;;;;;0.89;100.00;104189.59;5231190;28;20032;-63
2022/01/13 05:30:02;;;;;;;118.10;40.03;;;;;;;0.88;100.00;104192.38;5231052;28;20036;-63
2022/01/13 05:32:32;;;;;;;127.15;36.65;;;;;;;0.82;100.00;104184.84;5230898;28;20020;-63
2022/01/13 05:35:03;;;;;;;130.00;43.35;;;;;;;0.80;100.00;104189.44;5230673;28;20454;-63
2022/01/13 05:37:33;;;;;;;90.18;35.88;;;;;;;0.80;100.00;104192.09;5229363;28;20025;-61
2022/01/13 05:40:05;;;;;;;164.30;49.60;;;;;;;0.77;100.00;104195.81;5248274;28;20074;-63
2022/01/13 05:42:35;;;;;;;124.35;39.58;;;;;;;0.75;100.00;104195.06;5248694;28;20029;-63
2022/01/13 05:45:14;;;;;;;227.57;47.85;;;;;;;0.72;100.00;104197.97;5230624;28;20036;-63
2022/01/13 05:47:47;;;;;;;151.73;38.83;;;;;;;0.70;100.00;104207.00;5230607;28;20024;-63
2022/01/13 05:50:19;;;;;;;150.20;38.70;;;;;;;0.68;100.00;104202.63;5228828;28;20028;-62
2022/01/13 05:52:50;;;;;;;142.50;38.22;;;;;;;0.52;100.00;104169.28;5219568;28;20013;-63
2022/01/13 05:55:21;;;;;;;132.23;39.45;;;;;;;0.65;100.00;104189.56;5229768;28;20487;-63
2022/01/13 05:57:51;;;;;;;143.27;40.50;;;;;;;0.70;100.00;104204.34;5230421;28;20021;-63
2022/01/13 06:00:23;;;;;;;136.55;37.92;;;;;;;0.67;100.00;104205.41;5230457;28;20028;-63
2022/01/13 06:02:54;;;;;;;172.52;43.88;;;;;;;0.66;100.00;104214.34;5230299;28;20488;-63
2022/01/13 06:05:25;;;;;;;145.48;41.35;;;;;;;0.64;100.00;104206.47;5230278;28;20123;-63
2022/01/13 06:07:56;;;;;;;170.65;46.08;;;;;;;0.53;100.00;104195.75;5229993;28;20024;-63
2022/01/13 06:10:27;;;;;;;109.47;39.55;;;;;;;0.56;100.00;104205.34;5248178;28;20094;-64
2022/01/13 06:12:57;;;;;;;253.15;49.97;;;;;;;0.60;100.00;104214.78;5230146;28;20021;-61
2022/01/13 06:15:28;;;;;;;231.85;50.35;;;;;;;0.56;100.00;104213.31;5229690;28;20028;-63
2022/01/13 06:17:58;;;;;;;152.60;42.42;;;;;;;0.55;100.00;104214.28;5230235;28;20126;-63
2022/01/13 06:20:30;;;;;;;173.13;49.30;;;;;;;0.53;100.00;104209.06;5229816;28;20086;-63
2022/01/13 06:23:02;;;;;;;140.93;42.50;;;;;;;0.52;100.00;104218.00;5229576;28;20078;-62
2022/01/13 06:25:33;;;;;;;235.13;48.58;;;;;;;0.45;100.00;104211.41;5229958;28;20511;-63
2022/01/13 06:28:04;;;;;;;258.40;50.55;;;;;;;0.49;100.00;104215.53;5230133;28;20024;-63
2022/01/13 06:30:34;;;;;;;237.90;45.17;;;;;;;0.49;100.00;104206.72;5229893;28;20020;-63
2022/01/13 06:33:05;;;;;;;158.30;41.70;;;;;;;0.47;100.00;104205.97;5228682;28;20020;-63
2022/01/13 06:35:36;;;;;;;199.10;38.88;;;;;;;0.42;100.00;104198.31;5228687;28;20085;-63
2022/01/13 06:38:06;;;;;;;184.05;42.60;;;;;;;0.47;100.00;104209.47;5229989;28;20071;-63
2022/01/13 06:40:37;;;;;;;210.30;45.17;;;;;;;0.40;100.00;104188.75;5229850;28;20024;-61
2022/01/13 06:43:08;;;;;;;141.27;42.22;;;;;;;0.45;100.00;104197.25;5229637;28;20098;-63
2022/01/13 06:45:38;;;;;;;186.68;45.85;;;;;;;0.41;100.00;104179.81;5247426;28;20028;-63
2022/01/13 06:48:09;;;;;;;128.23;41.10;;;;;;;0.42;100.00;104189.50;5229808;28;20021;-63
2022/01/13 06:50:40;;;;;;;97.50;34.85;;;;;;;0.42;100.00;104192.16;5229548;28;20037;-63
2022/01/13 06:53:10;;;;;;;148.30;42.65;;;;;;;0.36;100.00;104180.13;5229434;28;20035;-63
2022/01/13 06:55:41;;;;;;;140.35;37.47;;;;;;;0.38;100.00;104178.22;5229440;28;20078;-63
2022/01/13 06:58:11;;;;;;;186.68;47.10;;;;;;;0.41;100.00;104190.44;5229356;28;20040;-63
2022/01/13 07:00:42;;;;;;;165.32;46.10;;;;;;;0.12;100.00;104137.50;5244789;22;20123;-65
2022/01/13 07:03:12;;;;;;;132.02;43.10;;;;;;;0.42;100.00;104189.50;5257481;28;20052;-62
2022/01/13 07:05:43;;;;;;;142.10;42.30;;;;;;;0.42;100.00;104192.16;5250008;28;20372;-62
2022/01/13 07:08:14;;;;;;;129.75;45.95;;;;;;;0.42;100.00;104190.34;5250042;28;20077;-60
2022/01/13 07:10:45;;;;;;;199.45;44.38;;;;;;;0.40;100.00;104181.63;5263467;28;20373;-62
2022/01/13 07:13:16;;;;;;;189.88;43.25;;;;;;;0.42;100.00;104190.34;5229199;28;20044;-60
2022/01/13 07:15:46;;;;;;;164.02;41.70;;;;;;;0.39;100.00;104177.25;5229118;28;20052;-60
2022/01/13 07:18:17;;;;;;;112.10;41.92;;;;;;;0.41;100.00;104206.41;5229288;28;20020;-60
2022/01/13 07:20:48;;;;;;;92.93;40.53;;;;;;;0.42;100.00;104195.66;5229045;28;20046;-62
2022/01/13 07:23:19;;;;;;;153.48;44.92;;;;;;;0.42;100.00;104200.13;5228984;28;20036;-60
2022/01/13 07:25:49;;;;;;;197.05;41.80;;;;;;;0.40;100.00;104196.72;5229087;28;20017;-60
2022/01/13 07:28:20;;;;;;;157.38;47.17;;;;;;;0.40;100.00;104205.53;5229082;28;20040;-61
2022/01/13 07:30:50;;;;;;;206.63;44.80;;;;;;;0.41;100.00;104195.75;5229003;28;20111;-61
2022/01/13 07:33:21;;;;;;;187.32;41.50;;;;;;;0.41;100.00;104201.06;5228963;28;20060;-62
2022/01/13 07:35:52;;;;;;;215.95;47.50;;;;;;;0.37;100.00;104194.28;5228836;28;20403;-60
2022/01/13 07:38:22;;;;;;;181.45;50.13;;;;;;;0.29;100.00;104187.66;5228516;28;20043;-61
2022/01/13 07:40:53;;;;;;;214.75;51.42;;;;;;;0.20;100.00;104175.03;5228819;28;20108;-60
2022/01/13 07:43:25;;;;;;;187.93;37.50;;;;;;;0.38;100.00;104202.13;5228381;28;20032;-62
2022/01/13 07:45:55;;;;;;;90.90;35.05;;;;;;;0.28;100.00;104182.50;5229064;28;20472;-64
2022/01/13 07:48:26;;;;;;;137.95;41.20;;;;;;;0.39;100.00;104209.16;5228623;28;20027;-64
2022/01/13 07:50:56;;;;;;;146.55;39.75;;;;;;;0.39;100.00;104209.16;5228532;28;20055;-64
2022/01/13 07:53:27;;;;;;;109.55;42.65;;;;;;;0.40;100.00;104207.34;5228341;28;20469;-62
2022/01/13 07:55:57;;;;;;;183.43;42.03;;;;;;;0.44;100.00;104217.66;5228791;28;20023;-62
2022/01/13 07:58:27;;;;;;;140.90;38.38;;;;;;;0.46;100.00;104220.22;5228709;28;20025;-64
2022/01/13 08:00:58;;;;;;;134.18;40.75;;;;;;;0.48;100.00;104213.84;5228376;28;20027;-64
2022/01/13 08:03:28;;;;;;;209.18;43.58;;;;;;;0.32;100.00;104199.91;5228248;28;20021;-64
2022/01/13 08:06:00;;;;;;;239.45;49.75;;;;;;;0.43;100.00;104209.78;5228856;28;20024;-64
2022/01/13 08:08:32;;;;;;;179.32;40.05;;;;;;;0.36;100.00;104204.06;5247863;28;20400;-63
2022/01/13 08:11:04;;;;;;;168.93;44.92;;;;;;;0.36;100.00;104212.03;5249030;28;20027;-63
2022/01/13 08:13:36;;;;;;;219.32;45.92;;;;;;;0.34;100.00;104209.47;5248808;28;20036;-63
2022/01/13 08:16:09;;;;;;;251.45;45.78;;;;;;;0.33;100.00;104214.91;5249028;28;20115;-63
2022/01/13 08:21:28;;;;;;;166.73;39.72;;;;;;;0.39;100.00;104206.50;5267872;28;20094;-61
2022/01/13 08:23:58;;;;;;;219.52;40.58;;;;;;;0.44;100.00;104216.81;5249523;28;20032;-63
2022/01/13 08:26:29;;;;;;;135.48;36.40;;;;;;;0.29;100.00;104195.66;5249619;28;20498;-64
2022/01/13 08:28:59;;;;;;;189.13;44.00;;;;;;;0.07;100.00;104152.91;5249243;28;20388;-62
2022/01/13 08:31:31;;;;;;;222.13;48.30;;;;;;;0.47;100.00;104212.13;5249908;28;20026;-62
2022/01/13 08:34:01;;;;;;;146.82;40.38;;;;;;;0.52;100.00;104211.81;5249283;28;20176;-62
2022/01/13 08:36:32;;;;;;;133.38;40.92;;;;;;;0.54;100.00;104215.22;5249380;28;20118;-61
2022/01/13 08:39:03;;;;;;;113.18;34.67;;;;;;;0.55;100.00;104216.94;5248990;28;20062;-62
2022/01/13 08:41:33;;;;;;;110.43;35.90;;;;;;;0.54;100.00;104229.38;5249269;28;20020;-61
2022/01/13 08:44:04;;;;;;;179.85;41.22;;;;;;;0.55;100.00;104217.78;5249627;28;20153;-60
2022/01/13 08:46:39;;;;;;;128.52;32.92;;;;;;;0.55;100.00;104212.47;5249501;28;20027;-60
2022/01/13 08:49:10;;;;;;;170.85;37.80;;;;;;;0.52;100.00;104203.84;5249274;28;20020;-61
2022/01/13 08:51:40;;;;;;;173.07;41.03;;;;;;;0.58;100.00;104214.88;5249179;28;20104;-61
2022/01/13 08:54:11;;;;;;;188.75;32.53;;;;;;;0.49;100.00;104201.41;5248954;28;20028;-62
2022/01/13 08:56:42;;;;;;;192.88;40.70;;;;;;;0.46;100.00;104183.00;5248995;28;20055;-62
2022/01/13 08:59:12;;;;;;;87.05;30.52;;;;;;;0.63;100.00;104230.50;5249477;28;20030;-60
2022/01/13 09:01:43;;;;;;;184.75;37.42;;;;;;;0.62;100.00;104228.81;5248386;28;20500;-62
2022/01/13 09:04:13;;;;;;;74.30;33.58;;;;;;;0.65;100.00;104228.59;5249206;28;20107;-61
2022/01/13 09:06:44;;;;;;;117.88;36.08;;;;;;;0.55;100.00;104225.75;5248933;28;20038;-63
2022/01/13 09:09:14;;;;;;;50.25;29.58;;;;;;;0.66;100.00;104239.13;5249039;28;20364;-59
2022/01/13 09:11:45;;;;;;;125.50;31.38;;;;;;;0.56;100.00;104224.81;5249336;28;20324;-59
2022/01/13 09:14:16;;;;;;;141.05;33.22;;;;;;;0.74;100.00;104249.25;5248594;28;20031;-60
2022/01/13 09:16:48;;;;;;;136.38;36.50;;;;;;;0.75;100.00;104244.78;5248548;28;20028;-61
2022/01/13 09:19:19;;;;;;;123.35;37.95;;;;;;;0.74;100.00;104248.38;5248286;28;20026;-62
2022/01/13 09:21:52;;;;;;;107.72;33.63;;;;;;;0.79;100.00;104248.91;5248347;28;20130;-62
2022/01/13 09:24:23;;;;;;;108.20;31.92;;;;;;;0.75;100.00;104240.31;5247960;28;20027;-63
2022/01/13 09:26:53;;;;;;;57.75;30.75;;;;;;;0.84;100.00;104252.13;5251908;28;20036;-62
2022/01/13 09:29:24;;;;;;;52.22;31.10;;;;;;;0.87;100.00;104254.53;5252016;28;20016;-63
2022/01/13 09:31:54;;;;;;;105.57;31.27;;;;;;;0.72;100.00;104229.03;5252018;28;20024;-61
2022/01/13 09:34:25;;;;;;;127.18;34.67;;;;;;;0.87;100.00;104257.19;5251618;28;20051;-64
2022/01/13 09:36:55;;;;;;;85.72;32.40;;;;;;;0.84;100.00;104252.13;5251668;28;20488;-64
2022/01/13 09:39:26;;;;;;;135.60;33.13;;;;;;;0.87;100.00;104255.38;5252105;28;20027;-61
2022/01/13 09:41:57;;;;;;;141.18;35.50;;;;;;;0.80;100.00;104237.31;5251770;28;20028;-61
2022/01/13 09:44:28;;;;;;;80.65;30.52;;;;;;;0.91;100.00;104250.69;5251751;28;20094;-62
2022/01/13 09:46:59;;;;;;;96.00;31.77;;;;;;;0.95;100.00;104262.81;5251806;28;20032;-60
2022/01/13 09:49:29;;;;;;;55.03;25.30;;;;;;;1.02;100.00;104259.63;5251698;28;20134;-60
2022/01/13 09:52:00;;;;;;;109.97;35.65;;;;;;;1.00;100.00;104263.34;5251637;28;20062;-60
2022/01/13 09:54:30;;;;;;;167.43;38.65;;;;;;;0.95;100.00;104257.50;5251347;28;20043;-61
2022/01/13 09:57:01;;;;;;;103.85;35.75;;;;;;;1.02;100.00;104275.59;5244445;28;20350;-61
2022/01/13 09:59:31;;;;;;;102.70;30.23;;;;;;;1.01;100.00;104273.88;5247219;28;20345;-62
2022/01/13 10:02:02;;;;;;;110.85;32.08;;;;;;;1.06;100.00;104267.38;5230351;28;20028;-61
2022/01/13 10:04:50;;;;;;;98.57;31.98;;;;;;;1.15;100.00;104266.75;5230908;28;20519;-65
2022/01/13 10:07:42;;;;;;;86.78;26.90;;;;;;;1.24;100.00;104274.03;5230761;28;20032;-64
2022/01/13 10:10:15;;;;;;;112.03;36.22;;;;;;;1.21;100.00;104264.47;5230068;28;20078;-64
2022/01/13 10:12:58;;;;;;;151.25;39.50;;;;;;;1.24;100.00;104266.06;5230617;28;20020;-61
2022/01/13 10:18:45;;;;;;;87.93;33.75;;;;;;;1.34;100.00;104259.97;5248599;28;20123;-61
2022/01/13 10:21:18;;;;;;;114.80;33.95;;;;;;;1.42;100.00;104261.22;5230204;28;20539;-62
2022/01/13 10:24:09;;;;;;;132.80;40.13;;;;;;;1.48;100.00;104266.06;5229964;28;20562;-61
2022/01/13 10:26:57;;;;;;;113.55;36.30;;;;;;;1.55;100.00;104264.66;5230185;28;20603;-63
2022/01/13 10:29:44;;;;;;;85.25;32.00;;;;;;;1.58;100.00;104259.97;5230298;28;20031;-61
2022/01/13 10:32:18;;;;;;;81.85;32.78;;;;;;;1.62;100.00;104252.59;5229949;28;20031;-61
2022/01/13 10:35:11;;;;;;;76.63;32.83;;;;;;;1.69;100.00;104259.19;5229698;28;20043;-63
2022/01/13 10:37:44;;;;;;;179.45;40.17;;;;;;;1.69;100.00;104253.84;5229546;28;20549;-62
2022/01/13 10:40:26;;;;;;;102.60;32.55;;;;;;;1.77;100.00;104261.25;5229758;28;20027;-62
2022/01/13 10:45:30;;;;;;;114.57;34.88;;;;;;;1.87;100.00;104246.28;5247597;28;20039;-62
2022/01/13 10:48:03;;;;;;;91.03;35.25;;;;;;;1.87;100.00;104251.63;5229425;28;20032;-60
2022/01/13 10:51:02;;;;;;;59.65;32.33;;;;;;;1.94;100.00;104245.72;5229422;28;20035;-63
2022/01/13 10:53:33;;;;;;;103.63;38.65;;;;;;;1.95;100.00;104244.75;5228421;28;20836;-63
2022/01/13 10:56:09;;;;;;;111.88;35.30;;;;;;;1.98;100.00;104249.00;5247280;28;20063;-63
2022/01/13 10:58:47;;;;;;;93.90;35.05;;;;;;;2.02;100.00;104243.28;5229572;28;20029;-64
2022/01/13 11:01:18;;;;;;;128.20;33.53;;;;;;;2.07;100.00;104236.75;5229170;28;20534;-63
2022/01/13 11:03:48;;;;;;;117.30;38.20;;;;;;;2.08;100.00;104244.66;5247250;28;20032;-62
2022/01/13 11:06:28;;;;;;;118.88;36.22;;;;;;;2.11;100.00;104243.56;5229493;28;20059;-62
2022/01/13 11:09:00;;;;;;;132.00;36.38;;;;;;;2.17;100.00;104237.78;5229468;28;20431;-64
2022/01/13 11:11:34;;;;;;;69.00;33.45;;;;;;;2.20;100.00;104241.06;5229175;28;20032;-64
2022/01/13 11:14:10;;;;;;;109.15;40.20;;;;;;;2.22;100.00;104240.94;5229158;28;20541;-63
2022/01/13 11:16:41;;;;;;;81.70;33.40;;;;;;;2.27;100.00;104242.28;5229174;28;20028;-61
2022/01/13 11:19:15;;;;;;;71.03;32.33;;;;;;;2.32;100.00;104233.91;5228948;28;20035;-62
2022/01/13 11:21:47;;;;;;;88.07;33.70;;;;;;;2.37;100.00;104235.25;5229275;28;20024;-62
2022/01/13 11:24:18;;;;;;;78.45;33.03;;;;;;;2.36;100.00;104230.03;5228834;28;20035;-62
2022/01/13 11:26:49;;;;;;;130.80;33.88;;;;;;;2.35;100.00;104231.00;5229110;28;20480;-62
2022/01/13 11:29:20;;;;;;;124.78;34.78;;;;;;;2.36;100.00;104211.38;5228832;28;20086;-64
2022/01/13 11:31:50;;;;;;;140.68;37.00;;;;;;;2.35;100.00;104204.34;5228504;28;20035;-62
2022/01/13 11:34:22;;;;;;;72.60;30.50;;;;;;;2.37;100.00;104197.06;5228835;28;20391;-62
2022/01/13 11:36:54;;;;;;;92.00;36.45;;;;;;;2.42;100.00;104200.22;5228920;28;20036;-64
2022/01/13 11:39:51;;;;;;;65.20;30.65;;;;;;;2.43;100.00;104193.06;5228916;28;20035;-64
2022/01/13 11:42:21;;;;;;;66.10;34.78;;;;;;;2.45;100.00;104189.31;5226857;28;20074;-65
2022/01/13 11:45:17;;;;;;;123.85;36.42;;;;;;;2.53;100.00;104196.72;5229118;28;20517;-62
2022/01/13 11:47:49;;;;;;;120.28;37.35;;;;;;;2.58;100.00;104198.06;5227926;28;20016;-62
2022/01/13 11:50:30;;;;;;;121.45;37.88;;;;;;;2.58;100.00;104191.88;5228078;28;20036;-63
2022/01/13 11:53:01;;;;;;;76.25;32.35;;;;;;;2.58;100.00;104199.88;5228528;28;20490;-63
2022/01/13 11:55:41;;;;;;;72.25;31.60;;;;;;;2.58;100.00;104194.53;5228336;28;20119;-63
2022/01/13 11:58:25;;;;;;;53.13;32.00;;;;;;;2.56;100.00;104189.31;5228662;28;20512;-63